createdAt,value
2019-02-25T00:00:18.007Z,1021.9
2019-02-25T00:01:19.278Z,1021.9
2019-02-25T00:02:20.317Z,1022.0
2019-02-25T00:03:21.037Z,1021.9
2019-02-25T00:04:21.743Z,1021.9
2019-02-25T00:05:22.461Z,1021.9
2019-02-25T00:06:23.169Z,1021.9
2019-02-25T00:07:23.893Z,1021.9
2019-02-25T00:08:24.607Z,1021.9
2019-02-25T00:09:25.312Z,1021.8
2019-02-25T00:10:26.037Z,1021.8
2019-02-25T00:11:26.750Z,1021.9
2019-02-25T00:12:27.698Z,1021.9
2019-02-25T00:13:28.426Z,1021.9
2019-02-25T00:14:29.132Z,1021.8
2019-02-25T00:15:29.842Z,1021.8
2019-02-25T00:16:30.545Z,1021.8
2019-02-25T00:17:31.263Z,1021.8
2019-02-25T00:18:32.211Z,1021.8
2019-02-25T00:19:32.923Z,1021.7
2019-02-25T00:20:33.633Z,1021.7
2019-02-25T00:21:34.346Z,1021.7
2019-02-25T00:22:35.059Z,1021.7
2019-02-25T00:23:35.769Z,1021.7
2019-02-25T00:24:36.485Z,1021.7
2019-02-25T00:25:37.445Z,1021.7
2019-02-25T00:26:38.207Z,1021.7
2019-02-25T00:27:38.928Z,1021.7
2019-02-25T00:28:39.641Z,1021.7
2019-02-25T00:29:40.359Z,1021.7
2019-02-25T00:30:41.069Z,1021.7
2019-02-25T00:31:41.830Z,1021.6
2019-02-25T00:32:42.545Z,1021.7
2019-02-25T00:33:43.248Z,1021.6
2019-02-25T00:34:43.956Z,1021.6
2019-02-25T00:35:44.664Z,1021.6
2019-02-25T00:36:45.465Z,1021.5
2019-02-25T00:37:46.173Z,1021.6
2019-02-25T00:38:46.883Z,1021.6
2019-02-25T00:39:47.606Z,1021.6
2019-02-25T00:40:48.316Z,1021.5
2019-02-25T00:41:49.040Z,1021.5
2019-02-25T00:42:49.756Z,1021.6
2019-02-25T00:43:50.459Z,1021.6
2019-02-25T00:44:51.170Z,1021.6
2019-02-25T00:45:51.898Z,1021.7
2019-02-25T00:46:52.746Z,1021.6
2019-02-25T00:47:53.451Z,1021.7
2019-02-25T00:48:54.162Z,1021.7
2019-02-25T00:49:55.114Z,1021.7
2019-02-25T00:50:56.353Z,1021.7
2019-02-25T00:51:57.058Z,1021.7
2019-02-25T00:52:57.813Z,1021.7
2019-02-25T00:53:58.518Z,1021.8
2019-02-25T00:54:59.228Z,1021.8
2019-02-25T00:55:59.934Z,1021.8
2019-02-25T00:57:00.650Z,1021.8
2019-02-25T00:58:01.465Z,1021.8
2019-02-25T00:59:02.173Z,1021.8
2019-02-25T01:00:02.923Z,1021.7
2019-02-25T01:01:03.637Z,1021.8
2019-02-25T01:02:04.341Z,1021.7
2019-02-25T01:03:05.052Z,1021.7
2019-02-25T01:04:05.763Z,1021.7
2019-02-25T01:05:06.478Z,1021.6
2019-02-25T01:06:07.179Z,1021.6
2019-02-25T01:07:07.891Z,1021.6
2019-02-25T01:08:08.611Z,1021.6
2019-02-25T01:09:09.361Z,1021.6
2019-02-25T01:10:10.347Z,1021.6
2019-02-25T01:11:11.051Z,1021.6
2019-02-25T01:12:11.765Z,1021.6
2019-02-25T01:13:12.484Z,1021.7
2019-02-25T01:14:13.231Z,1021.6
2019-02-25T01:15:13.951Z,1021.6
2019-02-25T01:16:14.649Z,1021.6
2019-02-25T01:17:15.361Z,1021.6
2019-02-25T01:18:16.076Z,1021.6
2019-02-25T01:19:16.780Z,1021.6
2019-02-25T01:20:17.501Z,1021.6
2019-02-25T01:21:18.270Z,1021.6
2019-02-25T01:22:18.976Z,1021.6
2019-02-25T01:23:19.693Z,1021.6
2019-02-25T01:24:20.415Z,1021.6
2019-02-25T01:25:21.183Z,1021.6
2019-02-25T01:26:21.833Z,1021.6
2019-02-25T01:27:22.535Z,1021.6
2019-02-25T01:28:23.315Z,1021.6
2019-02-25T01:29:23.968Z,1021.6
2019-02-25T01:30:24.681Z,1021.6
2019-02-25T01:31:25.788Z,1021.5
2019-02-25T01:32:26.496Z,1021.5
2019-02-25T01:33:27.213Z,1021.6
2019-02-25T01:34:27.927Z,1021.6
2019-02-25T01:35:28.630Z,1021.6
2019-02-25T01:36:29.353Z,1021.6
2019-02-25T01:37:30.109Z,1021.6
2019-02-25T01:38:30.829Z,1021.6
2019-02-25T01:39:31.537Z,1021.6
2019-02-25T01:40:32.250Z,1021.5
2019-02-25T01:41:32.969Z,1021.5
2019-02-25T01:42:33.682Z,1021.5
2019-02-25T01:43:34.388Z,1021.5
2019-02-25T01:44:35.091Z,1021.6
2019-02-25T01:45:35.807Z,1021.5
2019-02-25T01:46:36.506Z,1021.5
2019-02-25T01:47:37.270Z,1021.5
2019-02-25T01:48:38.258Z,1021.5
2019-02-25T01:49:38.977Z,1021.5
2019-02-25T01:50:39.699Z,1021.5
2019-02-25T01:51:40.414Z,1021.5
2019-02-25T01:52:41.126Z,1021.4
2019-02-25T01:53:41.830Z,1021.4
2019-02-25T01:54:42.550Z,1021.3
2019-02-25T01:55:43.254Z,1021.3
2019-02-25T01:56:44.215Z,1021.3
2019-02-25T01:57:44.933Z,1021.3
2019-02-25T01:58:45.637Z,1021.3
2019-02-25T01:59:46.347Z,1021.3
2019-02-25T02:00:47.059Z,1021.3
2019-02-25T02:01:47.776Z,1021.2
2019-02-25T02:02:48.493Z,1021.2
2019-02-25T02:03:49.255Z,1021.2
2019-02-25T02:04:49.960Z,1021.2
2019-02-25T02:05:50.697Z,1021.2
2019-02-25T02:06:51.405Z,1021.2
2019-02-25T02:07:52.122Z,1021.3
2019-02-25T02:08:52.839Z,1021.3
2019-02-25T02:09:53.541Z,1021.3
2019-02-25T02:10:54.251Z,1021.3
2019-02-25T02:11:55.264Z,1021.3
2019-02-25T02:12:55.973Z,1021.3
2019-02-25T02:13:56.933Z,1021.3
2019-02-25T02:14:57.656Z,1021.4
2019-02-25T02:15:58.362Z,1021.3
2019-02-25T02:16:59.069Z,1021.4
2019-02-25T02:17:59.771Z,1021.3
2019-02-25T02:19:00.491Z,1021.3
2019-02-25T02:20:01.189Z,1021.3
2019-02-25T02:21:01.898Z,1021.3
2019-02-25T02:22:02.604Z,1021.3
2019-02-25T02:23:03.311Z,1021.3
2019-02-25T02:24:04.024Z,1021.4
2019-02-25T02:25:04.743Z,1021.4
2019-02-25T02:26:05.452Z,1021.4
2019-02-25T02:27:06.169Z,1021.4
2019-02-25T02:28:06.872Z,1021.5
2019-02-25T02:29:07.588Z,1021.5
2019-02-25T02:30:08.310Z,1021.5
2019-02-25T02:31:09.010Z,1021.5
2019-02-25T02:32:09.713Z,1021.6
2019-02-25T02:33:10.417Z,1021.5
2019-02-25T02:34:11.128Z,1021.6
2019-02-25T02:35:11.834Z,1021.6
2019-02-25T02:36:12.532Z,1021.6
2019-02-25T02:37:13.238Z,1021.5
2019-02-25T02:38:13.947Z,1021.6
2019-02-25T02:39:14.661Z,1021.6
2019-02-25T02:40:15.406Z,1021.6
2019-02-25T02:41:16.086Z,1021.6
2019-02-25T02:42:16.843Z,1021.6
2019-02-25T02:43:17.550Z,1021.6
2019-02-25T02:44:18.251Z,1021.5
2019-02-25T02:45:18.959Z,1021.6
2019-02-25T02:46:19.667Z,1021.6
2019-02-25T02:47:20.381Z,1021.6
2019-02-25T02:48:21.076Z,1021.5
2019-02-25T02:49:21.785Z,1021.5
2019-02-25T02:50:22.491Z,1021.5
2019-02-25T02:51:23.194Z,1021.5
2019-02-25T02:52:23.910Z,1021.5
2019-02-25T02:53:24.689Z,1021.5
2019-02-25T02:54:25.826Z,1021.5
2019-02-25T02:55:26.514Z,1021.5
2019-02-25T02:56:27.213Z,1021.4
2019-02-25T02:57:27.919Z,1021.4
2019-02-25T02:58:28.627Z,1021.4
2019-02-25T02:59:29.387Z,1021.4
2019-02-25T03:00:30.088Z,1021.4
2019-02-25T03:01:30.807Z,1021.4
2019-02-25T03:02:31.513Z,1021.4
2019-02-25T03:03:32.221Z,1021.4
2019-02-25T03:04:33.032Z,1021.4
2019-02-25T03:05:33.745Z,1021.4
2019-02-25T03:06:34.461Z,1021.4
2019-02-25T03:07:35.171Z,1021.4
2019-02-25T03:08:35.871Z,1021.4
2019-02-25T03:09:36.567Z,1021.4
2019-02-25T03:10:37.288Z,1021.4
2019-02-25T03:11:38.250Z,1021.4
2019-02-25T03:12:38.961Z,1021.4
2019-02-25T03:13:39.674Z,1021.4
2019-02-25T03:14:40.387Z,1021.5
2019-02-25T03:15:41.104Z,1021.5
2019-02-25T03:16:41.819Z,1021.5
2019-02-25T03:17:42.516Z,1021.5
2019-02-25T03:18:43.229Z,1021.5
2019-02-25T03:19:43.936Z,1021.5
2019-02-25T03:20:44.641Z,1021.5
2019-02-25T03:21:45.640Z,1021.5
2019-02-25T03:22:46.336Z,1021.5
2019-02-25T03:23:47.060Z,1021.5
2019-02-25T03:24:47.765Z,1021.5
2019-02-25T03:25:48.470Z,1021.5
2019-02-25T03:26:49.182Z,1021.4
2019-02-25T03:27:49.886Z,1021.4
2019-02-25T03:28:50.590Z,1021.4
2019-02-25T03:29:51.305Z,1021.4
2019-02-25T03:30:52.009Z,1021.3
2019-02-25T03:31:52.732Z,1021.3
2019-02-25T03:32:53.434Z,1021.4
2019-02-25T03:33:54.162Z,1021.4
2019-02-25T03:34:54.855Z,1021.4
2019-02-25T03:35:55.558Z,1021.4
2019-02-25T03:36:56.265Z,1021.5
2019-02-25T03:37:56.980Z,1021.5
2019-02-25T03:38:57.684Z,1021.5
2019-02-25T03:39:58.401Z,1021.5
2019-02-25T03:40:59.115Z,1021.6
2019-02-25T03:41:59.873Z,1021.5
2019-02-25T03:43:00.590Z,1021.6
2019-02-25T03:44:01.301Z,1021.6
2019-02-25T03:45:02.007Z,1021.6
2019-02-25T03:46:02.973Z,1021.6
2019-02-25T03:47:03.803Z,1021.6
2019-02-25T03:48:04.495Z,1021.7
2019-02-25T03:49:05.200Z,1021.7
2019-02-25T03:50:06.155Z,1021.7
2019-02-25T03:51:08.009Z,1021.7
2019-02-25T03:52:07.724Z,1021.7
2019-02-25T03:53:08.432Z,1021.7
2019-02-25T03:54:09.138Z,1021.7
2019-02-25T03:55:09.855Z,1021.6
2019-02-25T03:56:10.570Z,1021.6
2019-02-25T03:57:11.281Z,1021.6
2019-02-25T03:58:11.989Z,1021.6
2019-02-25T03:59:12.727Z,1021.6
2019-02-25T04:00:13.442Z,1021.6
2019-02-25T04:01:14.151Z,1021.6
2019-02-25T04:02:14.964Z,1021.5
2019-02-25T04:03:15.692Z,1021.6
2019-02-25T04:04:16.409Z,1021.5
2019-02-25T04:05:17.124Z,1021.5
2019-02-25T04:06:17.832Z,1021.5
2019-02-25T04:07:18.599Z,1021.5
2019-02-25T04:08:19.302Z,1021.5
2019-02-25T04:09:20.027Z,1021.4
2019-02-25T04:10:20.728Z,1021.5
2019-02-25T04:11:21.442Z,1021.5
2019-02-25T04:12:22.159Z,1021.5
2019-02-25T04:13:22.974Z,1021.5
2019-02-25T04:14:23.684Z,1021.5
2019-02-25T04:15:24.383Z,1021.5
2019-02-25T04:16:25.090Z,1021.5
2019-02-25T04:17:25.793Z,1021.5
2019-02-25T04:18:26.512Z,1021.5
2019-02-25T04:19:27.320Z,1021.5
2019-02-25T04:20:28.996Z,1021.5
2019-02-25T04:21:29.706Z,1021.5
2019-02-25T04:22:30.603Z,1021.5
2019-02-25T04:23:31.391Z,1021.5
2019-02-25T04:24:32.222Z,1021.5
2019-02-25T04:25:32.944Z,1021.5
2019-02-25T04:26:33.655Z,1021.5
2019-02-25T04:27:34.363Z,1021.5
2019-02-25T04:28:35.072Z,1021.5
2019-02-25T04:29:36.029Z,1021.5
2019-02-25T04:30:36.737Z,1021.5
2019-02-25T04:31:37.443Z,1021.5
2019-02-25T04:32:38.163Z,1021.5
2019-02-25T04:33:38.872Z,1021.6
2019-02-25T04:34:39.589Z,1021.6
2019-02-25T04:35:40.303Z,1021.6
2019-02-25T04:36:41.012Z,1021.6
2019-02-25T04:37:41.720Z,1021.6
2019-02-25T04:38:42.426Z,1021.6
2019-02-25T04:39:43.134Z,1021.5
2019-02-25T04:40:43.843Z,1021.6
2019-02-25T04:41:44.552Z,1021.5
2019-02-25T04:42:45.257Z,1021.6
2019-02-25T04:43:45.961Z,1021.6
2019-02-25T04:44:46.666Z,1021.5
2019-02-25T04:45:47.376Z,1021.5
2019-02-25T04:46:48.335Z,1021.5
2019-02-25T04:47:49.045Z,1021.5
2019-02-25T04:48:49.756Z,1021.5
2019-02-25T04:49:50.469Z,1021.5
2019-02-25T04:50:51.233Z,1021.5
2019-02-25T04:51:51.939Z,1021.6
2019-02-25T04:52:52.645Z,1021.6
2019-02-25T04:53:53.359Z,1021.6
2019-02-25T04:54:54.060Z,1021.6
2019-02-25T04:55:54.770Z,1021.6
2019-02-25T04:56:55.515Z,1021.6
2019-02-25T04:57:56.224Z,1021.5
2019-02-25T04:58:57.088Z,1021.5
2019-02-25T04:59:57.798Z,1021.6
2019-02-25T05:00:58.604Z,1021.6
2019-02-25T05:02:02.173Z,1021.6
2019-02-25T05:03:01.083Z,1021.6
2019-02-25T05:04:01.795Z,1021.7
2019-02-25T05:05:02.504Z,1021.7
2019-02-25T05:06:03.229Z,1021.6
2019-02-25T05:07:03.930Z,1021.6
2019-02-25T05:08:04.626Z,1021.6
2019-02-25T05:09:05.339Z,1021.6
2019-02-25T05:10:06.069Z,1021.6
2019-02-25T05:11:06.787Z,1021.6
2019-02-25T05:12:07.526Z,1021.6
2019-02-25T05:13:08.241Z,1021.6
2019-02-25T05:14:08.954Z,1021.5
2019-02-25T05:15:09.670Z,1021.6
2019-02-25T05:16:10.621Z,1021.5
2019-02-25T05:17:11.355Z,1021.5
2019-02-25T05:18:12.046Z,1021.6
2019-02-25T05:19:12.753Z,1021.6
2019-02-25T05:20:13.716Z,1021.6
2019-02-25T05:21:14.418Z,1021.6
2019-02-25T05:22:15.120Z,1021.6
2019-02-25T05:23:16.075Z,1021.6
2019-02-25T05:24:16.785Z,1021.5
2019-02-25T05:25:17.500Z,1021.5
2019-02-25T05:26:18.218Z,1021.5
2019-02-25T05:27:18.924Z,1021.6
2019-02-25T05:28:19.622Z,1021.5
2019-02-25T05:29:20.342Z,1021.6
2019-02-25T05:30:21.051Z,1021.6
2019-02-25T05:31:21.759Z,1021.6
2019-02-25T05:32:22.474Z,1021.6
2019-02-25T05:33:23.178Z,1021.6
2019-02-25T05:34:23.894Z,1021.6
2019-02-25T05:35:24.597Z,1021.6
2019-02-25T05:36:25.303Z,1021.6
2019-02-25T05:37:26.011Z,1021.6
2019-02-25T05:38:26.718Z,1021.6
2019-02-25T05:39:27.676Z,1021.5
2019-02-25T05:40:28.382Z,1021.4
2019-02-25T05:41:29.094Z,1021.4
2019-02-25T05:42:29.804Z,1021.4
2019-02-25T05:43:30.508Z,1021.4
2019-02-25T05:44:31.217Z,1021.4
2019-02-25T05:45:32.181Z,1021.4
2019-02-25T05:46:32.895Z,1021.4
2019-02-25T05:47:33.846Z,1021.4
2019-02-25T05:48:34.552Z,1021.4
2019-02-25T05:49:35.265Z,1021.5
2019-02-25T05:50:35.994Z,1021.5
2019-02-25T05:51:36.691Z,1021.5
2019-02-25T05:52:37.402Z,1021.4
2019-02-25T05:53:38.114Z,1021.4
2019-02-25T05:54:38.824Z,1021.4
2019-02-25T05:55:39.531Z,1021.4
2019-02-25T05:56:40.240Z,1021.4
2019-02-25T05:57:40.952Z,1021.4
2019-02-25T05:58:41.920Z,1021.4
2019-02-25T05:59:42.648Z,1021.4
2019-02-25T06:00:43.350Z,1021.3
2019-02-25T06:01:44.051Z,1021.4
2019-02-25T06:02:44.781Z,1021.4
2019-02-25T06:03:45.469Z,1021.4
2019-02-25T06:04:46.175Z,1021.4
2019-02-25T06:05:46.886Z,1021.4
2019-02-25T06:06:47.599Z,1021.5
2019-02-25T06:07:48.301Z,1021.5
2019-02-25T06:08:49.030Z,1021.5
2019-02-25T06:09:49.747Z,1021.5
2019-02-25T06:10:50.463Z,1021.5
2019-02-25T06:11:51.166Z,1021.5
2019-02-25T06:12:51.881Z,1021.5
2019-02-25T06:13:52.698Z,1021.6
2019-02-25T06:14:53.433Z,1021.6
2019-02-25T06:15:54.149Z,1021.6
2019-02-25T06:16:54.864Z,1021.6
2019-02-25T06:17:55.582Z,1021.6
2019-02-25T06:18:56.283Z,1021.6
2019-02-25T06:19:57.004Z,1021.6
2019-02-25T06:20:57.959Z,1021.6
2019-02-25T06:21:58.688Z,1021.6
2019-02-25T06:22:59.401Z,1021.6
2019-02-25T06:24:00.114Z,1021.6
2019-02-25T06:25:00.868Z,1021.6
2019-02-25T06:26:01.611Z,1021.6
2019-02-25T06:27:02.323Z,1021.5
2019-02-25T06:28:03.040Z,1021.5
2019-02-25T06:29:03.753Z,1021.5
2019-02-25T06:30:04.469Z,1021.5
2019-02-25T06:31:05.189Z,1021.5
2019-02-25T06:32:05.897Z,1021.5
2019-02-25T06:33:06.637Z,1021.5
2019-02-25T06:34:07.353Z,1021.5
2019-02-25T06:35:08.121Z,1021.4
2019-02-25T06:36:08.851Z,1021.5
2019-02-25T06:37:09.568Z,1021.5
2019-02-25T06:38:10.273Z,1021.5
2019-02-25T06:39:11.226Z,1021.5
2019-02-25T06:40:11.950Z,1021.5
2019-02-25T06:41:12.657Z,1021.5
2019-02-25T06:42:13.370Z,1021.5
2019-02-25T06:43:14.101Z,1021.5
2019-02-25T06:44:14.807Z,1021.6
2019-02-25T06:45:15.565Z,1021.5
2019-02-25T06:46:16.272Z,1021.5
2019-02-25T06:47:16.989Z,1021.5
2019-02-25T06:48:17.710Z,1021.5
2019-02-25T06:49:18.426Z,1021.5
2019-02-25T06:50:19.139Z,1021.5
2019-02-25T06:51:19.860Z,1021.5
2019-02-25T06:52:20.568Z,1021.5
2019-02-25T06:53:21.278Z,1021.6
2019-02-25T06:54:22.030Z,1021.6
2019-02-25T06:55:22.748Z,1021.6
2019-02-25T06:56:23.462Z,1021.7
2019-02-25T06:57:24.178Z,1021.8
2019-02-25T06:58:24.915Z,1021.8
2019-02-25T06:59:25.622Z,1021.8
2019-02-25T07:00:26.350Z,1021.8
2019-02-25T07:01:27.060Z,1021.9
2019-02-25T07:02:27.882Z,1021.9
2019-02-25T07:03:28.594Z,1021.9
2019-02-25T07:04:29.565Z,1021.9
2019-02-25T07:05:30.260Z,1021.9
2019-02-25T07:06:30.976Z,1021.9
2019-02-25T07:07:31.687Z,1021.9
2019-02-25T07:08:32.650Z,1021.9
2019-02-25T07:09:33.413Z,1021.9
2019-02-25T07:10:34.132Z,1022.0
2019-02-25T07:11:34.841Z,1022.0
2019-02-25T07:12:35.559Z,1022.0
2019-02-25T07:13:36.273Z,1022.0
2019-02-25T07:14:36.989Z,1022.0
2019-02-25T07:15:37.702Z,1022.0
2019-02-25T07:16:38.660Z,1022.0
2019-02-25T07:17:39.398Z,1022.1
2019-02-25T07:18:40.110Z,1022.0
2019-02-25T07:19:40.826Z,1022.1
2019-02-25T07:20:42.753Z,1022.0
2019-02-25T07:21:42.243Z,1022.1
2019-02-25T07:22:42.975Z,1022.1
2019-02-25T07:23:43.697Z,1022.1
2019-02-25T07:24:52.646Z,1022.1
2019-02-25T07:25:45.281Z,1022.1
2019-02-25T07:26:45.997Z,1022.1
2019-02-25T07:27:46.716Z,1022.2
2019-02-25T07:28:47.691Z,1022.2
2019-02-25T07:29:48.398Z,1022.2
2019-02-25T07:30:49.110Z,1022.2
2019-02-25T07:31:49.829Z,1022.3
2019-02-25T07:32:50.553Z,1022.3
2019-02-25T07:33:51.267Z,1022.3
2019-02-25T07:34:51.991Z,1022.3
2019-02-25T07:35:52.698Z,1022.3
2019-02-25T07:36:53.428Z,1022.3
2019-02-25T07:37:54.134Z,1022.3
2019-02-25T07:38:54.848Z,1022.3
2019-02-25T07:39:55.558Z,1022.3
2019-02-25T07:40:56.270Z,1022.3
2019-02-25T07:41:56.987Z,1022.3
2019-02-25T07:42:57.707Z,1022.3
2019-02-25T07:43:58.418Z,1022.3
2019-02-25T07:44:59.132Z,1022.3
2019-02-25T07:45:59.851Z,1022.2
2019-02-25T07:47:00.561Z,1022.2
2019-02-25T07:48:01.271Z,1022.3
2019-02-25T07:49:01.986Z,1022.2
2019-02-25T07:50:02.705Z,1022.3
2019-02-25T07:51:03.417Z,1022.2
2019-02-25T07:52:04.139Z,1022.3
2019-02-25T07:53:05.006Z,1022.3
2019-02-25T07:54:06.889Z,1022.3
2019-02-25T07:55:06.436Z,1022.3
2019-02-25T07:56:07.158Z,1022.3
2019-02-25T07:57:07.890Z,1022.3
2019-02-25T07:58:08.645Z,1022.3
2019-02-25T07:59:09.362Z,1022.3
2019-02-25T08:00:10.078Z,1022.3
2019-02-25T08:01:10.795Z,1022.3
2019-02-25T08:02:11.507Z,1022.4
2019-02-25T08:03:12.269Z,1022.4
2019-02-25T08:04:12.981Z,1022.4
2019-02-25T08:05:13.684Z,1022.4
2019-02-25T08:06:14.404Z,1022.4
2019-02-25T08:07:15.109Z,1022.4
2019-02-25T08:08:15.830Z,1022.5
2019-02-25T08:09:16.543Z,1022.5
2019-02-25T08:10:17.251Z,1022.5
2019-02-25T08:11:18.015Z,1022.4
2019-02-25T08:12:18.727Z,1022.4
2019-02-25T08:13:19.448Z,1022.5
2019-02-25T08:14:20.153Z,1022.5
2019-02-25T08:15:20.872Z,1022.5
2019-02-25T08:16:21.581Z,1022.5
2019-02-25T08:17:22.290Z,1022.6
2019-02-25T08:18:23.053Z,1022.5
2019-02-25T08:19:23.767Z,1022.5
2019-02-25T08:20:24.478Z,1022.5
2019-02-25T08:21:25.190Z,1022.5
2019-02-25T08:22:25.910Z,1022.5
2019-02-25T08:23:26.718Z,1022.5
2019-02-25T08:24:30.582Z,1022.5
2019-02-25T08:25:28.155Z,1022.5
2019-02-25T08:26:28.877Z,1022.4
2019-02-25T08:27:29.592Z,1022.4
2019-02-25T08:28:30.307Z,1022.4
2019-02-25T08:29:31.021Z,1022.3
2019-02-25T08:30:31.735Z,1022.4
2019-02-25T08:31:32.473Z,1022.4
2019-02-25T08:32:33.191Z,1022.5
2019-02-25T08:33:33.904Z,1022.4
2019-02-25T08:34:34.668Z,1022.4
2019-02-25T08:35:35.380Z,1022.5
2019-02-25T08:36:37.536Z,1022.5
2019-02-25T08:37:36.813Z,1022.5
2019-02-25T08:38:37.526Z,1022.5
2019-02-25T08:39:38.601Z,1022.5
2019-02-25T08:40:39.316Z,1022.5
2019-02-25T08:41:40.038Z,1022.5
2019-02-25T08:42:40.758Z,1022.4
2019-02-25T08:43:41.482Z,1022.5
2019-02-25T08:44:42.240Z,1022.5
2019-02-25T08:45:42.970Z,1022.5
2019-02-25T08:46:43.695Z,1022.5
2019-02-25T08:47:44.423Z,1022.5
2019-02-25T08:48:45.141Z,1022.5
2019-02-25T08:49:45.907Z,1022.5
2019-02-25T08:50:46.623Z,1022.6
2019-02-25T08:51:47.344Z,1022.6
2019-02-25T08:52:48.075Z,1022.6
2019-02-25T08:53:48.778Z,1022.6
2019-02-25T08:54:49.558Z,1022.6
2019-02-25T08:55:50.276Z,1022.6
2019-02-25T08:56:51.002Z,1022.7
2019-02-25T08:57:51.713Z,1022.7
2019-02-25T08:58:52.451Z,1022.8
2019-02-25T08:59:53.169Z,1022.8
2019-02-25T09:00:53.887Z,1022.8
2019-02-25T09:01:54.612Z,1022.8
2019-02-25T09:02:55.349Z,1022.8
2019-02-25T09:03:56.064Z,1022.9
2019-02-25T09:04:56.785Z,1022.9
2019-02-25T09:05:57.512Z,1022.9
2019-02-25T09:06:58.246Z,1022.9
2019-02-25T09:07:58.976Z,1022.9
2019-02-25T09:08:59.691Z,1023.0
2019-02-25T09:10:00.413Z,1023.0
2019-02-25T09:11:01.139Z,1022.9
2019-02-25T09:12:01.865Z,1023.0
2019-02-25T09:13:02.578Z,1022.9
2019-02-25T09:14:03.300Z,1022.9
2019-02-25T09:15:04.024Z,1022.9
2019-02-25T09:16:04.747Z,1022.8
2019-02-25T09:17:05.471Z,1022.8
2019-02-25T09:18:06.196Z,1022.8
2019-02-25T09:19:06.986Z,1022.8
2019-02-25T09:20:07.706Z,1022.8
2019-02-25T09:21:08.435Z,1022.8
2019-02-25T09:22:09.151Z,1022.8
2019-02-25T09:23:09.875Z,1022.8
2019-02-25T09:24:10.596Z,1022.8
2019-02-25T09:25:11.471Z,1022.8
2019-02-25T09:26:12.194Z,1022.7
2019-02-25T09:27:12.923Z,1022.7
2019-02-25T09:28:13.656Z,1022.7
2019-02-25T09:29:14.374Z,1022.8
2019-02-25T09:30:15.295Z,1022.7
2019-02-25T09:31:16.023Z,1022.8
2019-02-25T09:32:16.750Z,1022.7
2019-02-25T09:33:17.511Z,1022.7
2019-02-25T09:34:18.244Z,1022.7
2019-02-25T09:35:18.975Z,1022.7
2019-02-25T09:36:19.695Z,1022.7
2019-02-25T09:37:20.418Z,1022.7
2019-02-25T09:38:21.140Z,1022.7
2019-02-25T09:39:21.913Z,1022.7
2019-02-25T09:40:22.677Z,1022.7
2019-02-25T09:41:29.639Z,1022.8
2019-02-25T09:42:24.159Z,1022.7
2019-02-25T09:43:24.879Z,1022.7
2019-02-25T09:44:25.601Z,1022.7
2019-02-25T09:45:26.327Z,1022.7
2019-02-25T09:46:27.065Z,1022.7
2019-02-25T09:47:27.775Z,1022.7
2019-02-25T09:48:28.513Z,1022.8
2019-02-25T09:49:29.236Z,1022.7
2019-02-25T09:50:30.030Z,1022.8
2019-02-25T09:51:30.753Z,1022.8
2019-02-25T09:52:31.479Z,1022.8
2019-02-25T09:53:32.201Z,1022.8
2019-02-25T09:54:32.929Z,1022.8
2019-02-25T09:55:33.649Z,1022.9
2019-02-25T09:56:34.622Z,1022.9
2019-02-25T09:57:35.350Z,1022.9
2019-02-25T09:58:36.079Z,1022.9
2019-02-25T09:59:36.807Z,1022.9
2019-02-25T10:00:37.542Z,1022.9
2019-02-25T10:01:38.277Z,1022.9
2019-02-25T10:02:39.008Z,1023.0
2019-02-25T10:03:39.735Z,1023.0
2019-02-25T10:04:40.467Z,1023.0
2019-02-25T10:05:41.197Z,1023.0
2019-02-25T10:06:42.184Z,1022.9
2019-02-25T10:07:42.904Z,1023.0
2019-02-25T10:08:43.638Z,1022.9
2019-02-25T10:09:44.614Z,1023.0
2019-02-25T10:10:45.659Z,1023.0
2019-02-25T10:11:46.396Z,1022.9
2019-02-25T10:12:47.138Z,1023.0
2019-02-25T10:13:47.863Z,1023.0
2019-02-25T10:14:49.600Z,1023.0
2019-02-25T10:15:49.325Z,1023.0
2019-02-25T10:16:50.071Z,1022.9
2019-02-25T10:17:50.796Z,1022.9
2019-02-25T10:18:51.522Z,1022.9
2019-02-25T10:19:52.255Z,1022.9
2019-02-25T10:20:52.981Z,1022.9
2019-02-25T10:21:53.701Z,1022.9
2019-02-25T10:22:54.422Z,1022.9
2019-02-25T10:23:55.164Z,1022.9
2019-02-25T10:24:55.896Z,1022.9
2019-02-25T10:25:56.625Z,1022.9
2019-02-25T10:26:57.350Z,1022.9
2019-02-25T10:27:58.079Z,1022.8
2019-02-25T10:28:58.804Z,1022.9
2019-02-25T10:29:59.544Z,1022.8
2019-02-25T10:31:00.269Z,1022.8
2019-02-25T10:32:02.618Z,1022.8
2019-02-25T10:33:01.742Z,1022.8
2019-02-25T10:34:02.486Z,1022.8
2019-02-25T10:35:03.217Z,1022.8
2019-02-25T10:36:03.941Z,1022.8
2019-02-25T10:37:04.670Z,1022.8
2019-02-25T10:38:05.403Z,1022.8
2019-02-25T10:39:06.122Z,1022.8
2019-02-25T10:40:06.901Z,1022.8
2019-02-25T10:41:07.600Z,1022.8
2019-02-25T10:42:08.334Z,1022.8
2019-02-25T10:43:09.171Z,1022.8
2019-02-25T10:44:09.911Z,1022.8
2019-02-25T10:45:13.011Z,1022.8
2019-02-25T10:46:13.467Z,1022.8
2019-02-25T10:47:13.573Z,1022.8
2019-02-25T10:48:13.097Z,1022.8
2019-02-25T10:49:13.832Z,1022.8
2019-02-25T10:50:14.552Z,1022.9
2019-02-25T10:51:15.278Z,1022.8
2019-02-25T10:52:17.262Z,1022.8
2019-02-25T10:53:18.206Z,1022.7
2019-02-25T10:54:19.141Z,1022.7
2019-02-25T10:55:18.214Z,1022.7
2019-02-25T10:56:19.906Z,1022.6
2019-02-25T10:57:21.320Z,1022.6
2019-02-25T10:58:20.383Z,1022.6
2019-02-25T10:59:21.152Z,1022.6
2019-02-25T11:00:21.975Z,1022.6
2019-02-25T11:01:24.636Z,1022.6
2019-02-25T11:02:23.432Z,1022.5
2019-02-25T11:03:24.172Z,1022.5
2019-02-25T11:04:26.273Z,1022.5
2019-02-25T11:05:27.934Z,1022.6
2019-02-25T11:06:27.404Z,1022.5
2019-02-25T11:07:27.334Z,1022.5
2019-02-25T11:08:28.060Z,1022.5
2019-02-25T11:09:28.837Z,1022.5
2019-02-25T11:10:29.572Z,1022.5
2019-02-25T11:11:30.289Z,1022.5
2019-02-25T11:12:32.142Z,1022.5
2019-02-25T11:13:31.901Z,1022.5
2019-02-25T11:14:33.332Z,1022.5
2019-02-25T11:15:33.216Z,1022.5
2019-02-25T11:16:33.948Z,1022.5
2019-02-25T11:17:34.671Z,1022.4
2019-02-25T11:18:35.394Z,1022.5
2019-02-25T11:19:36.140Z,1022.4
2019-02-25T11:20:37.823Z,1022.4
2019-02-25T11:21:38.100Z,1022.4
2019-02-25T11:22:39.904Z,1022.3
2019-02-25T11:23:39.047Z,1022.4
2019-02-25T11:24:39.790Z,1022.3
2019-02-25T11:25:40.576Z,1022.4
2019-02-25T11:26:41.300Z,1022.3
2019-02-25T11:27:42.032Z,1022.4
2019-02-25T11:28:43.777Z,1022.3
2019-02-25T11:29:44.126Z,1022.3
2019-02-25T11:30:45.050Z,1022.3
2019-02-25T11:31:47.246Z,1022.2
2019-02-25T11:32:45.990Z,1022.2
2019-02-25T11:33:46.720Z,1022.2
2019-02-25T11:34:47.453Z,1022.2
2019-02-25T11:35:48.189Z,1022.1
2019-02-25T11:36:50.841Z,1022.1
2019-02-25T11:37:50.222Z,1022.0
2019-02-25T11:38:50.380Z,1022.0
2019-02-25T11:39:52.587Z,1022.0
2019-02-25T11:40:51.854Z,1021.9
2019-02-25T11:41:52.690Z,1021.9
2019-02-25T11:42:53.426Z,1021.9
2019-02-25T11:43:55.336Z,1021.9
2019-02-25T11:44:57.038Z,1021.8
2019-02-25T11:45:55.614Z,1021.8
2019-02-25T11:46:56.335Z,1021.8
2019-02-25T11:47:57.067Z,1021.8
2019-02-25T11:48:57.789Z,1021.8
2019-02-25T11:49:58.531Z,1021.8
2019-02-25T11:50:59.255Z,1021.8
2019-02-25T11:51:59.993Z,1021.8
2019-02-25T11:53:00.723Z,1021.8
2019-02-25T11:54:01.449Z,1021.7
2019-02-25T11:55:02.177Z,1021.7
2019-02-25T11:56:02.913Z,1021.7
2019-02-25T11:57:03.643Z,1021.6
2019-02-25T11:58:04.364Z,1021.6
2019-02-25T11:59:05.100Z,1021.6
2019-02-25T12:00:05.824Z,1021.6
2019-02-25T12:01:06.562Z,1021.6
2019-02-25T12:02:07.294Z,1021.6
2019-02-25T12:03:08.079Z,1021.6
2019-02-25T12:04:08.811Z,1021.6
2019-02-25T12:05:09.528Z,1021.6
2019-02-25T12:06:10.273Z,1021.6
2019-02-25T12:07:11.255Z,1021.6
2019-02-25T12:08:12.089Z,1021.5
2019-02-25T12:09:12.816Z,1021.5
2019-02-25T12:10:13.545Z,1021.5
2019-02-25T12:11:14.281Z,1021.6
2019-02-25T12:12:15.011Z,1021.5
2019-02-25T12:13:15.748Z,1021.5
2019-02-25T12:14:16.477Z,1021.5
2019-02-25T12:15:17.210Z,1021.5
2019-02-25T12:16:17.934Z,1021.5
2019-02-25T12:17:18.657Z,1021.4
2019-02-25T12:18:19.389Z,1021.4
2019-02-25T12:19:20.116Z,1021.4
2019-02-25T12:20:20.864Z,1021.4
2019-02-25T12:21:21.596Z,1021.4
2019-02-25T12:22:22.323Z,1021.4
2019-02-25T12:23:23.061Z,1021.3
2019-02-25T12:24:23.787Z,1021.4
2019-02-25T12:25:24.532Z,1021.4
2019-02-25T12:26:25.263Z,1021.4
2019-02-25T12:27:25.996Z,1021.4
2019-02-25T12:28:26.731Z,1021.4
2019-02-25T12:29:27.633Z,1021.4
2019-02-25T12:30:28.338Z,1021.4
2019-02-25T12:31:29.088Z,1021.3
2019-02-25T12:32:29.783Z,1021.3
2019-02-25T12:33:30.515Z,1021.3
2019-02-25T12:34:31.247Z,1021.3
2019-02-25T12:35:32.222Z,1021.2
2019-02-25T12:36:32.956Z,1021.2
2019-02-25T12:37:33.679Z,1021.1